Disclaimer

Please do not use the information listed here in-flight or in-navigation, as they are not provided to us by the airports but are provided by volunteers, so they might be outdated.

Search


Regions


Airport information page

Radio informations:
INFO - 118.125 MHz

Airport informations:
Latitude: 27° 22' 46.52" N
Longitude: 052° 44' 15.60" E
Elevation: 27 feet - 8 meters
Operating hours: Remarks
Operating agency: Civil government, landing fees and diplomatic clearance may be required
Timezone: UTC+3:30
Fuel: N/A

Runway information:
13/31 - 13115 x 148 feet< - >3997 x 45 meters

Recent METARs:
OIBP 122000Z 35004KT 9999 FEW035 24/19 Q1014 A2995
OIBP 122000Z 35004KT 9999 FEW035 24/19 Q1014 A2995
OIBP 122100Z 00000KT 9999 FEW035 24/19 Q1014 A2994

Airport on the map: